Time;durP1;ratioP1;P1;durP2;ratioP2;P2;SDS_P1;SDS_P2;PMS_P1;PMS_P2;Temp;Humidity;BMP_temperature;BMP_pressure;BME280_temperature;BME280_humidity;BME280_pressure;Samples;Min_cycle;Max_cycle;Signal;HPM_P1;HPM_P2
2022/01/26 00:06:19;;;;;;;106.05;72.72;;;;;;;1.82;100.00;103378.03;5166115;28;20049;-55
2022/01/26 00:08:50;;;;;;;104.93;73.28;;;;;;;1.79;100.00;103375.63;5148372;28;20035;-61
2022/01/26 00:11:20;;;;;;;104.82;71.20;;;;;;;1.83;100.00;103386.84;5148348;28;20407;-58
2022/01/26 00:13:51;;;;;;;95.68;72.03;;;;;;;1.83;100.00;103398.34;5147998;28;20113;-57
2022/01/26 00:16:43;;;;;;;100.18;70.28;;;;;;;1.84;100.00;103393.88;5148346;28;20038;-57
2022/01/26 00:19:27;;;;;;;116.65;79.10;;;;;;;1.66;100.00;103369.72;5164505;28;20034;-57
2022/01/26 00:21:57;;;;;;;111.97;81.95;;;;;;;1.72;100.00;103384.31;5148151;28;20030;-56
2022/01/26 00:25:05;;;;;;;100.70;74.00;;;;;;;1.81;100.00;103399.47;5147991;28;20095;-54
2022/01/26 00:27:49;;;;;;;108.47;75.03;;;;;;;1.80;100.00;103403.09;5165309;28;20030;-58
2022/01/26 00:38:39;;;;;;;91.05;73.40;;;;;;;1.66;100.00;103367.06;5165854;28;20117;-58
2022/01/26 00:41:14;;;;;;;98.38;75.20;;;;;;;1.81;100.00;103399.47;5147510;28;20106;-56
2022/01/26 00:43:54;;;;;;;103.43;74.20;;;;;;;1.82;100.00;103407.31;5147620;28;20033;-58
2022/01/26 00:46:26;;;;;;;91.30;71.32;;;;;;;1.82;100.00;103404.66;5147952;28;20085;-56
2022/01/26 00:48:56;;;;;;;100.43;69.95;;;;;;;1.78;100.00;103403.25;5147178;28;20046;-61
2022/01/26 00:51:27;;;;;;;117.38;75.63;;;;;;;1.81;100.00;103412.78;5147604;28;20034;-56
2022/01/26 00:54:06;;;;;;;91.25;71.22;;;;;;;1.79;100.00;103418.25;5147436;28;20025;-54
2022/01/26 00:56:37;;;;;;;101.10;69.13;;;;;;;1.75;100.00;103408.84;5147668;28;20402;-57
2022/01/26 00:59:07;;;;;;;94.63;73.70;;;;;;;1.71;100.00;103403.94;5148034;28;20037;-56
2022/01/26 01:01:38;;;;;;;79.60;64.95;;;;;;;1.52;100.00;103378.91;5147589;28;20027;-55
2022/01/26 01:04:08;;;;;;;87.03;68.00;;;;;;;1.70;100.00;103419.09;5147106;28;20368;-57
2022/01/26 01:06:51;;;;;;;97.57;67.75;;;;;;;1.59;100.00;103381.88;5147804;28;20057;-55
2022/01/26 01:09:23;;;;;;;92.47;66.72;;;;;;;1.67;100.00;103403.38;5147552;28;20030;-57
2022/01/26 01:11:56;;;;;;;79.75;65.18;;;;;;;1.62;100.00;103394.94;5147234;28;20021;-56
2022/01/26 01:14:28;;;;;;;77.82;59.30;;;;;;;1.66;100.00;103407.00;5164695;28;20018;-55
2022/01/26 01:17:02;;;;;;;87.65;64.93;;;;;;;1.67;100.00;103403.38;5147458;28;20030;-58
2022/01/26 01:19:56;;;;;;;82.78;63.40;;;;;;;1.63;100.00;103405.44;5147375;28;20422;-58
2022/01/26 01:33:24;;;;;;;76.57;60.53;;;;;;;1.53;100.00;103367.28;5164507;28;20026;-60
2022/01/26 01:35:44;;;;;;;76.18;59.55;;;;;;;1.59;100.00;103385.41;5160593;28;20042;-56
2022/01/26 01:38:18;;;;;;;72.60;60.42;;;;;;;1.58;100.00;103382.88;5147182;28;20045;-56
2022/01/26 01:40:50;;;;;;;85.95;62.95;;;;;;;1.60;100.00;103378.25;5146884;28;20030;-56
2022/01/26 01:43:22;;;;;;;80.15;64.90;;;;;;;1.59;100.00;103392.53;5145224;28;20413;-56
2022/01/26 01:45:55;;;;;;;82.07;65.93;;;;;;;1.58;100.00;103375.72;5145417;28;20256;-56
2022/01/26 01:48:30;;;;;;;91.90;66.75;;;;;;;1.56;100.00;103374.16;5145177;28;20030;-60
2022/01/26 01:51:07;;;;;;;73.90;60.65;;;;;;;1.58;100.00;103377.53;5145307;28;20026;-57
2022/01/26 01:53:42;;;;;;;86.47;66.43;;;;;;;1.59;100.00;103373.91;5145643;28;20030;-58
2022/01/26 01:56:15;;;;;;;70.32;58.65;;;;;;;1.58;100.00;103369.53;5163358;28;20640;-55
2022/01/26 01:58:45;;;;;;;70.47;57.13;;;;;;;1.60;100.00;103360.44;5146801;28;20088;-56
2022/01/26 02:01:16;;;;;;;72.68;57.58;;;;;;;1.61;100.00;103355.97;5150070;28;20113;-60
2022/01/26 02:03:46;;;;;;;87.63;66.05;;;;;;;1.60;100.00;103349.78;5149479;28;20125;-59
2022/01/26 02:06:17;;;;;;;84.32;67.45;;;;;;;1.60;100.00;103344.47;5150385;28;20076;-60
2022/01/26 02:08:48;;;;;;;68.68;61.35;;;;;;;1.60;100.00;103344.47;5150330;28;20038;-56
2022/01/26 02:11:18;;;;;;;72.03;63.63;;;;;;;1.60;100.00;103346.28;5133784;28;20073;-56
2022/01/26 02:14:09;;;;;;;75.15;57.58;;;;;;;1.58;100.00;103345.56;5148817;28;20022;-61
2022/01/26 02:56:06;;;;;;;75.45;61.33;;;;;;;1.27;100.00;103278.22;5266204;28;20401;-87
2022/01/26 03:09:34;;;;;;;78.50;65.32;;;;;;;1.36;100.00;103261.44;5265439;28;20028;-86
2022/01/26 03:12:07;;;;;;;83.72;65.72;;;;;;;1.51;100.00;103286.69;5246374;28;20032;-86
2022/01/26 03:19:56;;;;;;;82.72;69.28;;;;;;;1.22;100.00;103249.34;5263890;28;20020;-88
2022/01/26 03:30:56;;;;;;;97.88;67.82;;;;;;;1.36;100.00;103256.13;5263868;28;20150;-89
2022/01/26 03:36:10;;;;;;;86.97;66.97;;;;;;;1.17;100.00;103245.41;5264456;28;20040;-89
2022/01/26 03:38:46;;;;;;;91.57;66.05;;;;;;;1.30;100.00;103273.47;5246975;28;20025;-85
2022/01/26 03:42:05;;;;;;;82.68;63.95;;;;;;;1.38;100.00;103263.97;5245531;28;20032;-89
2022/01/26 03:44:10;;;;;;;85.65;66.82;;;;;;;1.38;100.00;103266.63;5255182;28;20039;-89
2022/01/26 03:46:42;;;;;;;92.28;71.68;;;;;;;1.33;100.00;103277.69;5246419;28;20016;-86
2022/01/26 03:49:13;;;;;;;86.13;70.65;;;;;;;1.44;100.00;103290.91;5246977;28;20026;-87
2022/01/26 03:51:43;;;;;;;81.85;68.68;;;;;;;1.22;100.00;103261.81;5246008;28;20115;-85
2022/01/26 03:54:16;;;;;;;90.25;69.18;;;;;;;0.38;100.00;103120.28;5246930;28;20137;-85
2022/01/26 03:56:46;;;;;;;89.53;71.50;;;;;;;1.42;100.00;103289.34;5245764;28;20024;-88
2022/01/26 03:59:17;;;;;;;83.22;66.55;;;;;;;1.34;100.00;103277.56;5246399;28;20024;-87
2022/01/26 04:01:47;;;;;;;93.47;70.25;;;;;;;1.25;100.00;103265.06;5263596;28;20036;-85
2022/01/26 04:04:18;;;;;;;98.70;67.95;;;;;;;1.42;100.00;103271.56;5263446;28;20024;-86
2022/01/26 04:06:48;;;;;;;90.72;66.53;;;;;;;1.42;100.00;103271.56;5244958;28;20553;-86
2022/01/26 04:09:19;;;;;;;75.47;61.92;;;;;;;1.43;100.00;103275.06;5262153;28;20035;-86
2022/01/26 04:11:50;;;;;;;96.35;67.63;;;;;;;1.22;100.00;103228.06;5242018;28;20035;-88
2022/01/26 04:14:25;;;;;;;94.75;70.55;;;;;;;1.38;100.00;103258.66;5241127;28;20425;-86
2022/01/26 04:16:56;;;;;;;93.45;71.07;;;;;;;1.33;100.00;103259.91;5242213;28;20154;-87
2022/01/26 04:19:29;;;;;;;82.82;68.85;;;;;;;1.43;100.00;103267.91;5244278;28;20032;-85
2022/01/26 04:24:41;;;;;;;89.65;67.60;;;;;;;1.44;100.00;103266.94;5256520;28;20043;-86
2022/01/26 04:29:42;;;;;;;91.38;71.88;;;;;;;1.08;100.00;103244.44;5256537;28;20040;-85
2022/01/26 04:32:14;;;;;;;94.38;73.00;;;;;;;1.10;100.00;103258.44;5256405;28;20028;-85
2022/01/26 04:34:48;;;;;;;92.05;71.47;;;;;;;1.43;100.00;103301.69;5238926;28;20027;-86
2022/01/26 04:40:03;;;;;;;103.57;72.47;;;;;;;1.40;100.00;103316.09;5256503;28;20029;-86
2022/01/26 04:42:44;;;;;;;98.82;74.03;;;;;;;1.24;100.00;103284.66;5237880;28;20401;-85
2022/01/26 04:45:15;;;;;;;99.35;72.43;;;;;;;1.39;100.00;103313.59;5238390;28;20482;-85
2022/01/26 04:47:45;;;;;;;100.75;71.10;;;;;;;1.40;100.00;103301.97;5238305;28;20111;-87
2022/01/26 04:50:16;;;;;;;100.95;71.40;;;;;;;1.19;100.00;103270.91;5256110;28;20103;-84
2022/01/26 04:52:47;;;;;;;92.38;70.68;;;;;;;1.38;100.00;103322.53;5255593;28;20024;-86
2022/01/26 04:55:17;;;;;;;100.35;74.80;;;;;;;1.11;100.00;103276.09;5237662;28;20132;-85
2022/01/26 04:57:47;;;;;;;103.93;75.78;;;;;;;1.01;100.00;103262.75;5236106;28;20397;-85
2022/01/26 05:00:18;;;;;;;100.72;73.85;;;;;;;1.37;100.00;103326.19;5231451;28;20025;-89
2022/01/26 05:02:48;;;;;;;97.72;73.07;;;;;;;0.97;100.00;103256.00;5249125;28;20047;-87
2022/01/26 05:05:19;;;;;;;105.70;72.95;;;;;;;1.03;100.00;103275.91;5230840;28;20020;-86
2022/01/26 05:07:49;;;;;;;100.68;71.13;;;;;;;1.13;100.00;103302.56;5231269;28;20035;-86
2022/01/26 05:10:19;;;;;;;96.80;71.82;;;;;;;0.85;100.00;103241.13;5232275;28;20456;-85
2022/01/26 05:12:50;;;;;;;97.35;70.53;;;;;;;1.37;100.00;103339.50;5251815;28;20087;-85
2022/01/26 05:15:23;;;;;;;91.68;73.68;;;;;;;1.25;100.00;103314.78;5230711;28;20024;-85
2022/01/26 05:17:53;;;;;;;105.63;74.97;;;;;;;1.21;100.00;103308.88;5249370;28;20024;-88
2022/01/26 05:20:24;;;;;;;90.43;65.63;;;;;;;1.22;100.00;103328.34;5231025;28;20031;-86
2022/01/26 05:22:54;;;;;;;101.43;74.85;;;;;;;1.38;100.00;103341.19;5242543;28;20028;-85
2022/01/26 05:25:24;;;;;;;83.35;66.38;;;;;;;1.40;100.00;103341.88;5252719;28;20024;-86
2022/01/26 05:27:55;;;;;;;102.07;73.38;;;;;;;1.17;100.00;103299.47;5252217;28;20043;-85
2022/01/26 05:30:27;;;;;;;92.82;75.68;;;;;;;1.40;100.00;103345.41;5271665;28;20073;-85
2022/01/26 05:32:57;;;;;;;90.10;69.50;;;;;;;1.39;100.00;103330.41;5252186;28;20030;-88
2022/01/26 05:35:28;;;;;;;92.97;70.00;;;;;;;1.41;100.00;103316.94;5251675;28;20110;-86
2022/01/26 05:37:58;;;;;;;97.75;72.57;;;;;;;1.01;100.00;103251.25;5250235;28;20397;-88
2022/01/26 05:40:28;;;;;;;94.63;72.32;;;;;;;1.14;100.00;103259.00;5249905;28;20111;-87
2022/01/26 05:42:59;;;;;;;104.60;73.43;;;;;;;1.19;100.00;103252.28;5250695;28;20054;-86
2022/01/26 05:45:35;;;;;;;98.05;71.85;;;;;;;1.07;100.00;103237.41;5270421;28;20060;-86
2022/01/26 05:48:10;;;;;;;103.50;72.65;;;;;;;1.40;100.00;103310.78;5249423;28;20038;-86
2022/01/26 05:50:50;;;;;;;96.40;72.32;;;;;;;1.23;100.00;103280.31;5268608;28;20457;-87
2022/01/26 05:53:21;;;;;;;92.22;70.70;;;;;;;1.00;100.00;103238.94;5262697;28;20108;-87
2022/01/26 05:55:53;;;;;;;101.50;70.00;;;;;;;1.21;100.00;103300.06;5247575;28;20103;-88
2022/01/26 05:58:24;;;;;;;101.03;71.35;;;;;;;1.24;100.00;103289.16;5229436;28;20016;-87
2022/01/26 06:00:58;;;;;;;102.22;73.35;;;;;;;1.37;100.00;103299.56;5228775;28;20068;-87
2022/01/26 06:03:29;;;;;;;99.18;67.38;;;;;;;1.35;100.00;103302.34;5247215;28;20023;-86
2022/01/26 06:06:00;;;;;;;98.07;70.35;;;;;;;0.89;100.00;103226.56;5229671;28;20402;-86
2022/01/26 06:08:31;;;;;;;89.63;73.13;;;;;;;1.31;100.00;103293.78;5229678;28;20030;-87
2022/01/26 06:11:02;;;;;;;99.25;73.95;;;;;;;1.30;100.00;103300.09;5229134;28;20078;-86
2022/01/26 06:13:33;;;;;;;106.22;71.40;;;;;;;1.17;100.00;103291.50;5229559;28;20020;-86
2022/01/26 06:16:04;;;;;;;95.93;66.13;;;;;;;1.30;100.00;103289.44;5229528;28;20033;-86
2022/01/26 06:18:39;;;;;;;114.03;73.43;;;;;;;1.18;100.00;103282.53;5230209;28;20029;-86
2022/01/26 06:21:10;;;;;;;96.85;66.75;;;;;;;1.30;100.00;103312.56;5226549;28;20021;-86
2022/01/26 06:23:40;;;;;;;82.93;62.80;;;;;;;1.15;100.00;103266.88;5209413;28;20031;-86
2022/01/26 06:26:11;;;;;;;105.05;66.95;;;;;;;1.08;100.00;103268.38;5226322;28;20032;-87
2022/01/26 06:28:41;;;;;;;104.68;66.70;;;;;;;0.90;100.00;103238.03;5209312;28;20067;-87
2022/01/26 06:31:15;;;;;;;80.55;60.75;;;;;;;1.24;100.00;103283.81;5208634;28;20390;-87
2022/01/26 06:33:47;;;;;;;92.53;61.15;;;;;;;1.06;100.00;103267.66;5211872;28;20124;-87
2022/01/26 06:36:18;;;;;;;100.13;65.15;;;;;;;0.60;100.00;103207.81;5236662;28;20122;-90
2022/01/26 06:38:49;;;;;;;81.03;59.63;;;;;;;1.21;100.00;103308.88;5221303;28;20047;-87
2022/01/26 06:41:26;;;;;;;89.68;59.15;;;;;;;0.92;100.00;103260.88;5226736;28;20033;-86
2022/01/26 06:44:06;;;;;;;88.32;60.72;;;;;;;0.59;100.00;103194.66;5223416;28;20096;-88
2022/01/26 06:46:50;;;;;;;116.38;104.70;;;;;;;1.20;100.00;103299.22;5216603;28;20063;-85
2022/01/26 06:51:54;;;;;;;90.35;63.28;;;;;;;1.17;100.00;103304.78;5232104;28;20044;-84
2022/01/26 06:54:25;;;;;;;78.75;59.33;;;;;;;1.10;100.00;103298.34;5232039;28;20025;-83
2022/01/26 06:56:55;;;;;;;88.88;63.13;;;;;;;1.06;100.00;103302.25;5232813;28;20021;-84
2022/01/26 06:59:26;;;;;;;93.25;60.58;;;;;;;1.00;100.00;103300.13;5215702;28;20268;-84
2022/01/26 07:01:56;;;;;;;83.28;57.15;;;;;;;0.59;100.00;103232.72;5215068;28;20028;-85
2022/01/26 07:04:27;;;;;;;105.93;63.05;;;;;;;1.05;100.00;103321.84;5235871;28;20024;-83
2022/01/26 07:06:57;;;;;;;92.40;66.05;;;;;;;0.93;100.00;103297.13;5246238;28;20013;-82
2022/01/26 07:09:27;;;;;;;88.68;61.15;;;;;;;0.93;100.00;103275.00;5228004;28;20024;-83
2022/01/26 07:11:58;;;;;;;82.85;60.65;;;;;;;1.14;100.00;103310.41;5233974;28;20536;-84
2022/01/26 07:22:55;;;;;;;99.70;59.78;;;;;;;0.62;100.00;103224.47;5231050;28;20147;-85
2022/01/26 07:25:26;;;;;;;76.50;58.80;;;;;;;1.13;100.00;103297.25;5229393;28;20017;-85
2022/01/26 07:27:57;;;;;;;92.22;64.55;;;;;;;1.08;100.00;103289.66;5211625;28;20121;-84
2022/01/26 07:30:29;;;;;;;101.68;66.78;;;;;;;1.11;100.00;103310.69;5211166;28;20033;-84
2022/01/26 07:32:59;;;;;;;85.93;63.17;;;;;;;0.89;100.00;103271.78;5211153;28;20025;-85
2022/01/26 07:35:30;;;;;;;84.07;61.90;;;;;;;1.10;100.00;103310.81;5210616;28;20445;-84
2022/01/26 07:38:02;;;;;;;96.43;65.20;;;;;;;0.99;100.00;103320.56;5212244;28;20259;-86
2022/01/26 07:40:33;;;;;;;83.75;60.42;;;;;;;0.89;100.00;103316.16;5230003;28;20402;-82
2022/01/26 07:43:04;;;;;;;101.07;62.67;;;;;;;0.83;100.00;103311.38;5212605;28;20025;-84
2022/01/26 07:45:34;;;;;;;88.28;60.40;;;;;;;0.88;100.00;103304.66;5240946;28;20518;-84
2022/01/26 07:48:04;;;;;;;82.85;60.65;;;;;;;1.12;100.00;103331.00;5251047;28;20454;-84
2022/01/26 07:50:35;;;;;;;78.88;60.30;;;;;;;1.15;100.00;103346.69;5233174;28;20020;-84
2022/01/26 07:53:05;;;;;;;86.07;56.30;;;;;;;1.07;100.00;103337.69;5233981;28;20086;-82
2022/01/26 07:55:36;;;;;;;102.85;64.18;;;;;;;1.05;100.00;103315.69;5250685;28;20073;-83
2022/01/26 07:58:09;;;;;;;85.22;61.78;;;;;;;0.98;100.00;103307.38;5232536;28;20025;-84
2022/01/26 08:00:39;;;;;;;86.88;60.65;;;;;;;1.08;100.00;103321.59;5232844;28;20099;-85
2022/01/26 08:03:09;;;;;;;84.05;58.80;;;;;;;1.17;100.00;103333.22;5232342;28;20470;-83
2022/01/26 08:05:41;;;;;;;75.25;55.50;;;;;;;1.07;100.00;103317.25;5249322;28;20103;-85
2022/01/26 08:08:11;;;;;;;86.32;59.67;;;;;;;1.05;100.00;103311.22;5232230;28;20486;-85
2022/01/26 08:10:41;;;;;;;91.40;60.35;;;;;;;1.19;100.00;103344.59;5231980;28;20036;-84
2022/01/26 08:13:12;;;;;;;103.63;65.30;;;;;;;0.98;100.00;103310.91;5232445;28;20020;-84
2022/01/26 08:15:42;;;;;;;86.30;63.72;;;;;;;1.19;100.00;103342.78;5249505;28;20492;-84
2022/01/26 08:18:13;;;;;;;93.68;60.88;;;;;;;1.05;100.00;103321.84;5250656;28;20037;-83
2022/01/26 08:20:44;;;;;;;88.75;64.13;;;;;;;0.94;100.00;103303.31;5232284;28;20020;-84
2022/01/26 08:23:14;;;;;;;90.03;58.60;;;;;;;1.26;100.00;103357.22;5232534;28;20021;-84
2022/01/26 08:25:44;;;;;;;78.85;57.78;;;;;;;0.97;100.00;103308.38;5249926;28;20034;-84
2022/01/26 08:28:22;;;;;;;84.50;58.85;;;;;;;1.26;100.00;103345.75;5250567;28;20024;-84
2022/01/26 08:30:53;;;;;;;85.50;59.67;;;;;;;1.21;100.00;103358.59;5231797;28;20473;-83
2022/01/26 08:33:23;;;;;;;88.70;65.15;;;;;;;1.10;100.00;103354.22;5231594;28;20048;-85
2022/01/26 08:35:54;;;;;;;87.10;63.38;;;;;;;1.31;100.00;103375.47;5249433;28;20494;-84
2022/01/26 08:38:26;;;;;;;84.45;61.20;;;;;;;1.33;100.00;103362.88;5232055;28;20115;-83
2022/01/26 08:40:56;;;;;;;77.88;59.55;;;;;;;1.30;100.00;103348.00;5247769;22;20099;-60
2022/01/26 08:43:27;;;;;;;75.88;57.40;;;;;;;1.37;100.00;103348.31;5185870;28;20431;-61
2022/01/26 08:45:57;;;;;;;84.13;61.03;;;;;;;1.30;100.00;103337.38;5185808;28;20088;-61
2022/01/26 08:48:28;;;;;;;75.20;55.38;;;;;;;1.40;100.00;103348.06;5187007;28;20175;-61
2022/01/26 08:50:58;;;;;;;73.78;59.13;;;;;;;1.40;100.00;103344.56;5187040;28;20496;-61
2022/01/26 08:53:29;;;;;;;78.68;59.63;;;;;;;1.42;100.00;103355.91;5186996;28;20021;-61
2022/01/26 08:55:59;;;;;;;80.00;60.72;;;;;;;1.43;100.00;103347.78;5203475;28;20397;-61
2022/01/26 08:58:30;;;;;;;73.65;57.08;;;;;;;1.46;100.00;103351.97;5203080;28;20099;-61
2022/01/26 09:01:00;;;;;;;72.53;57.53;;;;;;;1.48;100.00;103355.34;5186814;28;20048;-61
2022/01/26 09:03:36;;;;;;;81.13;62.65;;;;;;;1.52;100.00;103351.44;5186466;28;20022;-61
2022/01/26 09:06:07;;;;;;;77.03;61.85;;;;;;;1.52;100.00;103354.09;5203270;28;20086;-61
2022/01/26 09:08:40;;;;;;;65.05;56.35;;;;;;;1.54;100.00;103360.13;5186300;28;20103;-60
2022/01/26 09:11:12;;;;;;;75.85;57.50;;;;;;;1.40;100.00;103342.72;5203274;28;20029;-61
2022/01/26 09:13:42;;;;;;;71.47;58.78;;;;;;;1.53;100.00;103359.28;5203276;28;20025;-61
2022/01/26 09:16:17;;;;;;;80.82;67.70;;;;;;;1.49;100.00;103351.72;5186649;28;20030;-61
2022/01/26 09:18:54;;;;;;;80.65;55.00;;;;;;;1.53;100.00;103353.97;5184579;28;20577;-61
2022/01/26 09:21:25;;;;;;;84.63;62.42;;;;;;;1.51;100.00;103355.94;5185405;28;20013;-61
2022/01/26 09:23:55;;;;;;;69.82;54.70;;;;;;;1.55;100.00;103360.00;5186260;28;20021;-60
2022/01/26 09:26:26;;;;;;;72.55;56.50;;;;;;;1.59;100.00;103360.59;5202887;28;20024;-61
2022/01/26 09:28:56;;;;;;;81.53;61.28;;;;;;;1.56;100.00;103352.84;5186226;28;20025;-61
2022/01/26 09:31:27;;;;;;;74.28;57.95;;;;;;;1.55;100.00;103345.84;5187097;28;20033;-61
2022/01/26 09:33:57;;;;;;;84.07;57.72;;;;;;;1.66;100.00;103359.91;5187146;28;20061;-61
2022/01/26 09:36:28;;;;;;;73.47;57.70;;;;;;;1.66;100.00;103359.06;5187129;28;20018;-61
2022/01/26 09:38:58;;;;;;;73.93;58.20;;;;;;;1.69;100.00;103359.63;5187100;28;20031;-61
2022/01/26 09:41:28;;;;;;;66.93;58.08;;;;;;;1.80;100.00;103369.31;5203453;28;20025;-61
2022/01/26 09:44:02;;;;;;;77.43;61.13;;;;;;;1.83;100.00;103382.38;5203347;28;20401;-61
2022/01/26 09:46:33;;;;;;;74.53;57.90;;;;;;;1.85;100.00;103374.25;5186669;28;20120;-61
2022/01/26 09:49:03;;;;;;;74.47;54.83;;;;;;;1.85;100.00;103368.91;5203494;28;20213;-61
2022/01/26 09:51:41;;;;;;;65.95;53.10;;;;;;;1.78;100.00;103355.28;5186888;28;20030;-60
2022/01/26 09:54:15;;;;;;;83.07;56.28;;;;;;;1.91;100.00;103366.56;5203241;28;20033;-61
2022/01/26 09:56:50;;;;;;;80.68;60.80;;;;;;;1.95;100.00;103356.47;5186979;28;20064;-61
2022/01/26 09:59:21;;;;;;;79.10;59.13;;;;;;;2.00;100.00;103367.56;5186952;28;20021;-61
2022/01/26 10:01:51;;;;;;;79.15;56.22;;;;;;;2.02;100.00;103360.25;5186826;28;20021;-61
2022/01/26 10:04:37;;;;;;;65.90;53.63;;;;;;;2.04;100.00;103356.44;5203079;28;20401;-61
2022/01/26 10:09:59;;;;;;;61.90;52.60;;;;;;;2.08;100.00;103353.50;5204505;28;20033;-60
2022/01/26 10:15:31;;;;;;;69.65;52.00;;;;;;;2.17;100.00;103358.03;5204439;28;20133;-59
2022/01/26 10:18:05;;;;;;;;;;;;;;;2.18;100.00;103338.38;5205100;28;20029;-60
2022/01/26 10:20:49;;;;;;;67.45;52.15;;;;;;;2.20;100.00;103333.75;5189153;28;19912;-61
2022/01/26 10:23:23;;;;;;;62.53;50.53;;;;;;;2.18;100.00;103336.56;5190600;28;20558;-60
2022/01/26 10:26:02;;;;;;;71.32;53.63;;;;;;;2.24;100.00;103348.50;5190714;28;20024;-60
2022/01/26 10:28:45;;;;;;;69.38;50.28;;;;;;;2.25;100.00;103344.84;5208189;28;20474;-61
2022/01/26 10:31:27;;;;;;;73.72;53.55;;;;;;;2.25;100.00;103356.34;5189973;28;20034;-61
2022/01/26 10:34:00;;;;;;;61.92;54.72;;;;;;;2.27;100.00;103343.72;5222823;28;20057;-60
2022/01/26 10:37:00;;;;;;;70.10;53.40;;;;;;;2.31;100.00;103347.75;5190075;28;20029;-61
2022/01/26 10:39:37;;;;;;;61.47;55.05;;;;;;;2.34;100.00;103349.31;5188107;28;20041;-60
2022/01/26 10:42:11;;;;;;;60.67;54.13;;;;;;;2.36;100.00;103323.34;5223199;28;20048;-61
2022/01/26 10:44:50;;;;;;;73.68;53.58;;;;;;;2.42;100.00;103324.63;5222612;28;20041;-61
2022/01/26 10:47:33;;;;;;;67.30;53.65;;;;;;;2.45;100.00;103322.50;5188696;28;20076;-61
2022/01/26 10:53:17;;;;;;;62.88;48.53;;;;;;;2.50;100.00;103327.41;5208134;28;20517;-60
2022/01/26 10:55:47;;;;;;;64.30;50.42;;;;;;;2.19;100.00;103268.09;5189747;28;20092;-61
2022/01/26 10:58:18;;;;;;;78.07;52.67;;;;;;;2.46;100.00;103316.19;5189765;28;20424;-60
2022/01/26 11:00:49;;;;;;;76.75;53.97;;;;;;;2.56;100.00;103332.19;5189364;28;20460;-61
2022/01/26 11:03:19;;;;;;;51.75;45.22;;;;;;;2.66;100.00;103341.00;5189302;28;20104;-61
2022/01/26 11:05:52;;;;;;;56.30;49.95;;;;;;;2.72;100.00;103353.78;5189580;28;20036;-61
2022/01/26 11:08:24;;;;;;;50.10;44.65;;;;;;;2.74;100.00;103364.31;5189565;28;20112;-61
2022/01/26 11:10:55;;;;;;;62.78;51.15;;;;;;;2.76;100.00;103371.19;5188993;28;20382;-59
2022/01/26 11:13:33;;;;;;;63.28;48.83;;;;;;;2.59;100.00;103351.44;5206764;28;20032;-61
2022/01/26 11:16:12;;;;;;;60.03;50.97;;;;;;;2.81;100.00;103384.09;5189319;28;20021;-61
2022/01/26 11:18:51;;;;;;;59.45;49.25;;;;;;;2.80;100.00;103371.75;5189174;28;20531;-61
2022/01/26 11:21:34;;;;;;;57.72;51.05;;;;;;;2.75;100.00;103355.31;5188819;28;20393;-61
2022/01/26 11:24:20;;;;;;;60.00;50.05;;;;;;;2.81;100.00;103347.59;5188582;28;20025;-62
2022/01/26 11:27:05;;;;;;;58.55;49.60;;;;;;;2.81;100.00;103336.06;5188987;28;20029;-61
2022/01/26 11:29:38;;;;;;;65.80;47.13;;;;;;;2.71;100.00;103330.75;5206774;28;20719;-61
2022/01/26 11:32:31;;;;;;;60.80;49.28;;;;;;;2.81;100.00;103354.75;5187722;28;20033;-61
2022/01/26 11:35:08;;;;;;;62.03;49.25;;;;;;;2.81;100.00;103330.72;5188460;28;20061;-60
2022/01/26 11:37:52;;;;;;;52.75;45.45;;;;;;;2.89;100.00;103330.81;5188994;28;20524;-61
2022/01/26 11:46:12;;;;;;;54.97;46.10;;;;;;;2.95;100.00;103322.25;5206528;28;20083;-59
2022/01/26 11:48:42;;;;;;;59.60;46.00;;;;;;;2.96;100.00;103313.25;5188265;28;20035;-61
2022/01/26 11:51:13;;;;;;;63.97;47.30;;;;;;;3.06;100.00;103330.09;5188003;28;20389;-59
2022/01/26 11:53:43;;;;;;;56.25;44.88;;;;;;;3.05;100.00;103323.06;5221191;28;20029;-61
2022/01/26 11:56:19;;;;;;;63.03;46.92;;;;;;;3.09;100.00;103331.63;5221196;28;20086;-61
2022/01/26 11:58:53;;;;;;;54.85;46.88;;;;;;;3.13;100.00;103320.53;5188450;28;20552;-61
2022/01/26 12:01:33;;;;;;;52.28;46.58;;;;;;;3.14;100.00;103321.34;5187080;28;20029;-61
2022/01/26 12:04:16;;;;;;;;;;;;;;;3.14;100.00;103314.19;5188303;28;20091;-61
2022/01/26 12:06:57;;;;;;;62.00;42.22;;;;;;;3.17;100.00;103311.22;5188155;28;20000;-61
2022/01/26 12:09:27;;;;;;;54.28;46.60;;;;;;;3.19;100.00;103314.56;5187820;28;20025;-61
2022/01/26 12:11:58;;;;;;;51.55;40.83;;;;;;;3.14;100.00;103306.19;5187852;28;20032;-60
2022/01/26 12:14:30;;;;;;;52.47;44.58;;;;;;;3.19;100.00;103306.56;5204138;28;20030;-61
2022/01/26 12:17:04;;;;;;;46.22;41.33;;;;;;;3.21;100.00;103299.25;5204241;28;20052;-61
2022/01/26 12:20:08;;;;;;;50.15;44.42;;;;;;;3.23;100.00;103294.59;5187899;28;20666;-60
2022/01/26 12:37:13;;;;;;;53.45;43.05;;;;;;;3.12;100.00;103297.47;5151740;28;20029;-62
2022/01/26 12:42:56;;;;;;;49.60;42.78;;;;;;;3.15;100.00;103301.69;5206007;28;20405;-67
2022/01/26 12:45:27;;;;;;;51.00;45.67;;;;;;;3.14;100.00;103297.34;5188272;28;20017;-62
2022/01/26 12:47:58;;;;;;;47.60;42.30;;;;;;;3.15;100.00;103296.34;5204977;28;20413;-60
2022/01/26 12:50:29;;;;;;;55.38;43.65;;;;;;;3.17;100.00;103295.22;5188225;28;20083;-61
2022/01/26 12:52:59;;;;;;;55.28;43.00;;;;;;;3.12;100.00;103286.78;5188125;28;20041;-62
2022/01/26 12:55:37;;;;;;;53.13;38.65;;;;;;;3.17;100.00;103287.19;5204065;28;20052;-59
2022/01/26 12:58:07;;;;;;;50.10;41.22;;;;;;;3.17;100.00;103289.88;5188134;28;20557;-61
2022/01/26 13:00:41;;;;;;;57.00;41.70;;;;;;;3.14;100.00;103290.16;5204401;28;20116;-61
2022/01/26 13:03:14;;;;;;;48.35;41.97;;;;;;;3.14;100.00;103300.84;5188186;28;20094;-61
2022/01/26 13:05:45;;;;;;;53.72;43.97;;;;;;;3.14;100.00;103298.19;5187652;28;20568;-60
2022/01/26 13:08:15;;;;;;;55.13;44.90;;;;;;;3.19;100.00;103305.72;5187936;28;20029;-61
2022/01/26 13:10:46;;;;;;;52.30;46.60;;;;;;;3.18;100.00;103294.19;5171532;28;20029;-60
2022/01/26 13:13:21;;;;;;;62.40;45.40;;;;;;;3.18;100.00;103298.69;5205325;28;20061;-61
2022/01/26 13:16:01;;;;;;;48.00;41.92;;;;;;;3.15;100.00;103294.50;5204292;28;20032;-61
2022/01/26 13:18:57;;;;;;;50.90;41.00;;;;;;;3.09;100.00;103292.44;5187663;28;20120;-60
2022/01/26 13:22:02;;;;;;;47.00;41.63;;;;;;;3.02;100.00;103294.84;5205266;28;20167;-61
2022/01/26 13:27:14;;;;;;;52.75;45.45;;;;;;;2.89;100.00;103264.13;5205913;28;20037;-61
2022/01/26 13:30:06;;;;;;;53.45;42.05;;;;;;;3.00;100.00;103266.59;5204103;28;20032;-61
2022/01/26 13:35:40;;;;;;;55.08;47.72;;;;;;;3.10;100.00;103278.09;5205387;28;20049;-61
2022/01/26 13:59:33;;;;;;;54.70;48.28;;;;;;;3.24;100.00;103258.91;5209383;28;20579;-63
2022/01/26 14:02:04;;;;;;;59.60;47.22;;;;;;;3.23;100.00;103267.06;5208057;28;20029;-60
2022/01/26 14:04:34;;;;;;;58.40;48.53;;;;;;;3.18;100.00;103262.16;5208614;28;20029;-62
2022/01/26 14:07:05;;;;;;;66.85;47.22;;;;;;;3.19;100.00;103247.81;5191371;28;20025;-62
2022/01/26 14:09:37;;;;;;;60.92;49.28;;;;;;;3.10;100.00;103235.38;5207936;28;20069;-61
2022/01/26 14:12:14;;;;;;;66.07;49.53;;;;;;;2.93;100.00;103207.63;5191121;28;20512;-62
2022/01/26 14:14:48;;;;;;;51.33;44.35;;;;;;;3.10;100.00;103239.88;5190970;28;20025;-60
2022/01/26 14:17:28;;;;;;;56.25;45.65;;;;;;;3.05;100.00;103249.16;5191218;28;20021;-62
2022/01/26 14:27:49;;;;;;;54.55;43.05;;;;;;;3.07;100.00;103240.16;5208943;28;20039;-61
2022/01/26 14:33:09;;;;;;;52.30;41.90;;;;;;;3.08;100.00;103236.50;5208657;28;20033;-63
2022/01/26 14:35:55;;;;;;;53.55;47.80;;;;;;;3.11;100.00;103242.41;5190874;28;20032;-61
2022/01/26 15:30:49;;;;;;;57.10;48.25;;;;;;;2.67;100.00;103228.81;5208067;28;20041;-62